sensor_id;sensor_type;location;lat;lon;timestamp;P1;durP1;ratioP1;P2;durP2;ratioP2
21868;SDS011;11099;41.564;23.296;2023-06-19T00:00:44;8.18;;;6.15;;
21868;SDS011;11099;41.564;23.296;2023-06-19T00:03:09;11.32;;;6.80;;
21868;SDS011;11099;41.564;23.296;2023-06-19T00:05:35;7.38;;;6.68;;
21868;SDS011;11099;41.564;23.296;2023-06-19T00:08:00;9.05;;;6.63;;
21868;SDS011;11099;41.564;23.296;2023-06-19T00:10:28;9.93;;;6.25;;
21868;SDS011;11099;41.564;23.296;2023-06-19T00:12:54;7.80;;;7.10;;
21868;SDS011;11099;41.564;23.296;2023-06-19T00:15:19;7.38;;;6.55;;
21868;SDS011;11099;41.564;23.296;2023-06-19T00:17:45;7.40;;;6.50;;
21868;SDS011;11099;41.564;23.296;2023-06-19T00:20:10;9.13;;;6.72;;
21868;SDS011;11099;41.564;23.296;2023-06-19T00:22:38;7.93;;;7.13;;
21868;SDS011;11099;41.564;23.296;2023-06-19T00:25:04;9.25;;;7.68;;
21868;SDS011;11099;41.564;23.296;2023-06-19T00:27:29;10.27;;;7.85;;
21868;SDS011;11099;41.564;23.296;2023-06-19T00:29:55;9.57;;;8.57;;
21868;SDS011;11099;41.564;23.296;2023-06-19T00:32:26;10.90;;;9.80;;
21868;SDS011;11099;41.564;23.296;2023-06-19T00:34:52;10.77;;;9.65;;
21868;SDS011;11099;41.564;23.296;2023-06-19T00:37:17;14.10;;;12.23;;
21868;SDS011;11099;41.564;23.296;2023-06-19T00:39:43;13.73;;;12.32;;
21868;SDS011;11099;41.564;23.296;2023-06-19T00:42:08;14.05;;;12.65;;
21868;SDS011;11099;41.564;23.296;2023-06-19T00:44:34;14.18;;;12.68;;
21868;SDS011;11099;41.564;23.296;2023-06-19T00:47:00;15.25;;;13.65;;
21868;SDS011;11099;41.564;23.296;2023-06-19T00:49:28;14.00;;;12.57;;
21868;SDS011;11099;41.564;23.296;2023-06-19T00:51:54;13.80;;;12.43;;
21868;SDS011;11099;41.564;23.296;2023-06-19T00:54:20;14.65;;;12.38;;
21868;SDS011;11099;41.564;23.296;2023-06-19T00:56:46;16.88;;;12.50;;
21868;SDS011;11099;41.564;23.296;2023-06-19T01:01:57;13.38;;;11.98;;
21868;SDS011;11099;41.564;23.296;2023-06-19T01:04:23;13.38;;;11.93;;
21868;SDS011;11099;41.564;23.296;2023-06-19T01:06:53;14.57;;;12.15;;
21868;SDS011;11099;41.564;23.296;2023-06-19T01:09:25;13.38;;;12.02;;
21868;SDS011;11099;41.564;23.296;2023-06-19T01:11:55;12.77;;;11.50;;
21868;SDS011;11099;41.564;23.296;2023-06-19T01:14:36;15.32;;;11.38;;
21868;SDS011;11099;41.564;23.296;2023-06-19T01:17:07;12.80;;;11.68;;
21868;SDS011;11099;41.564;23.296;2023-06-19T01:19:33;17.08;;;12.32;;
21868;SDS011;11099;41.564;23.296;2023-06-19T01:22:01;14.32;;;11.48;;
21868;SDS011;11099;41.564;23.296;2023-06-19T01:24:28;15.27;;;11.88;;
21868;SDS011;11099;41.564;23.296;2023-06-19T01:26:54;15.45;;;12.40;;
21868;SDS011;11099;41.564;23.296;2023-06-19T01:29:20;15.18;;;12.75;;
21868;SDS011;11099;41.564;23.296;2023-06-19T01:31:56;13.15;;;11.85;;
21868;SDS011;11099;41.564;23.296;2023-06-19T01:34:37;12.82;;;11.52;;
21868;SDS011;11099;41.564;23.296;2023-06-19T01:37:03;13.20;;;11.45;;
21868;SDS011;11099;41.564;23.296;2023-06-19T01:39:30;12.52;;;11.23;;
21868;SDS011;11099;41.564;23.296;2023-06-19T01:41:57;13.02;;;11.70;;
21868;SDS011;11099;41.564;23.296;2023-06-19T01:44:24;13.13;;;11.77;;
21868;SDS011;11099;41.564;23.296;2023-06-19T01:46:50;12.07;;;9.55;;
21868;SDS011;11099;41.564;23.296;2023-06-19T01:49:16;11.55;;;10.18;;
21868;SDS011;11099;41.564;23.296;2023-06-19T01:51:42;11.20;;;9.55;;
21868;SDS011;11099;41.564;23.296;2023-06-19T01:54:07;14.48;;;10.75;;
21868;SDS011;11099;41.564;23.296;2023-06-19T01:56:33;12.70;;;11.40;;
21868;SDS011;11099;41.564;23.296;2023-06-19T01:58:59;12.88;;;11.27;;
21868;SDS011;11099;41.564;23.296;2023-06-19T02:01:25;10.65;;;9.52;;
21868;SDS011;11099;41.564;23.296;2023-06-19T02:03:50;10.60;;;8.60;;
21868;SDS011;11099;41.564;23.296;2023-06-19T02:06:16;9.68;;;8.60;;
21868;SDS011;11099;41.564;23.296;2023-06-19T02:08:41;12.38;;;9.35;;
21868;SDS011;11099;41.564;23.296;2023-06-19T02:11:07;11.18;;;8.05;;
21868;SDS011;11099;41.564;23.296;2023-06-19T02:13:33;9.30;;;8.32;;
21868;SDS011;11099;41.564;23.296;2023-06-19T02:15:58;9.10;;;7.57;;
21868;SDS011;11099;41.564;23.296;2023-06-19T02:18:24;7.93;;;6.97;;
21868;SDS011;11099;41.564;23.296;2023-06-19T02:21:08;10.32;;;8.90;;
21868;SDS011;11099;41.564;23.296;2023-06-19T02:23:33;12.07;;;9.82;;
21868;SDS011;11099;41.564;23.296;2023-06-19T02:25:59;12.60;;;11.30;;
21868;SDS011;11099;41.564;23.296;2023-06-19T02:28:24;12.93;;;9.90;;
21868;SDS011;11099;41.564;23.296;2023-06-19T02:30:52;9.77;;;8.77;;
21868;SDS011;11099;41.564;23.296;2023-06-19T02:33:19;8.20;;;7.43;;
21868;SDS011;11099;41.564;23.296;2023-06-19T02:35:44;8.02;;;7.15;;
21868;SDS011;11099;41.564;23.296;2023-06-19T02:38:10;7.43;;;6.68;;
21868;SDS011;11099;41.564;23.296;2023-06-19T02:40:37;8.75;;;7.32;;
21868;SDS011;11099;41.564;23.296;2023-06-19T02:43:04;8.75;;;6.80;;
21868;SDS011;11099;41.564;23.296;2023-06-19T02:45:29;7.82;;;7.10;;
21868;SDS011;11099;41.564;23.296;2023-06-19T02:47:55;8.25;;;6.43;;
21868;SDS011;11099;41.564;23.296;2023-06-19T02:50:20;7.20;;;6.50;;
21868;SDS011;11099;41.564;23.296;2023-06-19T02:52:46;8.48;;;7.32;;
21868;SDS011;11099;41.564;23.296;2023-06-19T02:55:11;10.25;;;6.78;;
21868;SDS011;11099;41.564;23.296;2023-06-19T02:57:37;8.02;;;7.05;;
21868;SDS011;11099;41.564;23.296;2023-06-19T03:00:03;11.68;;;6.65;;
21868;SDS011;11099;41.564;23.296;2023-06-19T03:02:31;8.13;;;6.57;;
21868;SDS011;11099;41.564;23.296;2023-06-19T03:04:56;8.02;;;6.80;;
21868;SDS011;11099;41.564;23.296;2023-06-19T03:07:22;11.25;;;7.45;;
21868;SDS011;11099;41.564;23.296;2023-06-19T03:09:47;6.90;;;6.30;;
21868;SDS011;11099;41.564;23.296;2023-06-19T03:12:13;7.90;;;7.20;;
21868;SDS011;11099;41.564;23.296;2023-06-19T03:14:38;8.35;;;6.88;;
21868;SDS011;11099;41.564;23.296;2023-06-19T03:17:05;9.48;;;6.90;;
21868;SDS011;11099;41.564;23.296;2023-06-19T03:19:30;9.52;;;6.78;;
21868;SDS011;11099;41.564;23.296;2023-06-19T03:21:56;9.02;;;7.22;;
21868;SDS011;11099;41.564;23.296;2023-06-19T03:24:23;8.10;;;6.72;;
21868;SDS011;11099;41.564;23.296;2023-06-19T03:26:48;8.60;;;7.10;;
21868;SDS011;11099;41.564;23.296;2023-06-19T03:29:13;11.98;;;7.18;;
21868;SDS011;11099;41.564;23.296;2023-06-19T03:31:39;7.38;;;6.40;;
21868;SDS011;11099;41.564;23.296;2023-06-19T03:34:05;9.75;;;6.05;;
21868;SDS011;11099;41.564;23.296;2023-06-19T03:36:30;8.77;;;6.57;;
21868;SDS011;11099;41.564;23.296;2023-06-19T03:38:56;8.68;;;7.55;;
21868;SDS011;11099;41.564;23.296;2023-06-19T03:41:21;8.45;;;7.55;;
21868;SDS011;11099;41.564;23.296;2023-06-19T03:43:47;11.60;;;9.23;;
21868;SDS011;11099;41.564;23.296;2023-06-19T03:46:12;10.02;;;8.93;;
21868;SDS011;11099;41.564;23.296;2023-06-19T03:48:38;13.02;;;8.73;;
21868;SDS011;11099;41.564;23.296;2023-06-19T03:51:03;11.98;;;9.35;;
21868;SDS011;11099;41.564;23.296;2023-06-19T03:53:29;12.55;;;8.43;;
21868;SDS011;11099;41.564;23.296;2023-06-19T03:55:54;9.55;;;8.55;;
21868;SDS011;11099;41.564;23.296;2023-06-19T03:58:20;9.25;;;8.40;;
21868;SDS011;11099;41.564;23.296;2023-06-19T04:00:45;11.48;;;8.13;;
21868;SDS011;11099;41.564;23.296;2023-06-19T04:03:11;9.38;;;8.48;;
21868;SDS011;11099;41.564;23.296;2023-06-19T04:05:36;8.55;;;7.68;;
21868;SDS011;11099;41.564;23.296;2023-06-19T04:08:02;9.57;;;7.95;;
21868;SDS011;11099;41.564;23.296;2023-06-19T04:10:28;8.73;;;7.93;;
21868;SDS011;11099;41.564;23.296;2023-06-19T04:12:54;9.25;;;7.70;;
21868;SDS011;11099;41.564;23.296;2023-06-19T04:15:21;8.20;;;7.40;;
21868;SDS011;11099;41.564;23.296;2023-06-19T04:17:47;9.40;;;7.38;;
21868;SDS011;11099;41.564;23.296;2023-06-19T04:20:13;6.78;;;6.07;;
21868;SDS011;11099;41.564;23.296;2023-06-19T04:22:40;7.75;;;6.10;;
21868;SDS011;11099;41.564;23.296;2023-06-19T04:25:06;7.45;;;6.60;;
21868;SDS011;11099;41.564;23.296;2023-06-19T04:27:33;11.40;;;6.47;;
21868;SDS011;11099;41.564;23.296;2023-06-19T04:29:58;5.82;;;5.32;;
21868;SDS011;11099;41.564;23.296;2023-06-19T04:32:24;6.40;;;5.80;;
21868;SDS011;11099;41.564;23.296;2023-06-19T04:34:49;12.18;;;6.22;;
21868;SDS011;11099;41.564;23.296;2023-06-19T04:37:15;8.38;;;6.88;;
21868;SDS011;11099;41.564;23.296;2023-06-19T04:42:18;5.78;;;5.28;;
21868;SDS011;11099;41.564;23.296;2023-06-19T04:44:45;15.10;;;5.90;;
21868;SDS011;11099;41.564;23.296;2023-06-19T04:47:11;6.65;;;5.55;;
21868;SDS011;11099;41.564;23.296;2023-06-19T04:49:36;9.32;;;5.90;;
21868;SDS011;11099;41.564;23.296;2023-06-19T04:52:02;10.38;;;6.85;;
21868;SDS011;11099;41.564;23.296;2023-06-19T04:54:28;7.50;;;6.35;;
21868;SDS011;11099;41.564;23.296;2023-06-19T04:56:54;6.32;;;5.68;;
21868;SDS011;11099;41.564;23.296;2023-06-19T04:59:19;7.88;;;6.72;;
21868;SDS011;11099;41.564;23.296;2023-06-19T05:01:45;9.60;;;6.45;;
21868;SDS011;11099;41.564;23.296;2023-06-19T05:04:11;9.73;;;6.57;;
21868;SDS011;11099;41.564;23.296;2023-06-19T05:06:36;6.80;;;6.20;;
21868;SDS011;11099;41.564;23.296;2023-06-19T05:09:02;7.65;;;6.35;;
21868;SDS011;11099;41.564;23.296;2023-06-19T05:11:28;6.22;;;5.22;;
21868;SDS011;11099;41.564;23.296;2023-06-19T05:13:53;5.85;;;5.25;;
21868;SDS011;11099;41.564;23.296;2023-06-19T05:16:19;6.40;;;5.13;;
21868;SDS011;11099;41.564;23.296;2023-06-19T05:18:44;7.43;;;5.00;;
21868;SDS011;11099;41.564;23.296;2023-06-19T05:21:10;7.40;;;5.40;;
21868;SDS011;11099;41.564;23.296;2023-06-19T05:23:36;6.50;;;5.05;;
21868;SDS011;11099;41.564;23.296;2023-06-19T05:26:03;6.10;;;5.47;;
21868;SDS011;11099;41.564;23.296;2023-06-19T05:28:29;6.03;;;5.47;;
21868;SDS011;11099;41.564;23.296;2023-06-19T05:30:55;7.00;;;5.68;;
21868;SDS011;11099;41.564;23.296;2023-06-19T05:33:21;8.35;;;5.88;;
21868;SDS011;11099;41.564;23.296;2023-06-19T05:35:48;7.15;;;5.55;;
21868;SDS011;11099;41.564;23.296;2023-06-19T05:40:43;7.05;;;6.03;;
21868;SDS011;11099;41.564;23.296;2023-06-19T05:43:11;7.03;;;5.90;;
21868;SDS011;11099;41.564;23.296;2023-06-19T05:48:03;6.53;;;5.13;;
21868;SDS011;11099;41.564;23.296;2023-06-19T05:50:28;6.50;;;5.40;;
21868;SDS011;11099;41.564;23.296;2023-06-19T05:52:55;6.18;;;5.53;;
21868;SDS011;11099;41.564;23.296;2023-06-19T05:55:21;5.90;;;5.30;;
21868;SDS011;11099;41.564;23.296;2023-06-19T05:57:47;11.52;;;5.55;;
21868;SDS011;11099;41.564;23.296;2023-06-19T06:00:12;10.20;;;5.50;;
21868;SDS011;11099;41.564;23.296;2023-06-19T06:02:40;7.90;;;5.72;;
21868;SDS011;11099;41.564;23.296;2023-06-19T06:05:06;6.53;;;5.82;;
21868;SDS011;11099;41.564;23.296;2023-06-19T06:07:33;6.53;;;5.50;;
21868;SDS011;11099;41.564;23.296;2023-06-19T06:09:59;10.85;;;6.15;;
21868;SDS011;11099;41.564;23.296;2023-06-19T06:12:24;9.07;;;7.72;;
21868;SDS011;11099;41.564;23.296;2023-06-19T06:14:50;12.35;;;7.40;;
21868;SDS011;11099;41.564;23.296;2023-06-19T06:17:16;8.23;;;5.85;;
21868;SDS011;11099;41.564;23.296;2023-06-19T06:19:41;8.32;;;6.57;;
21868;SDS011;11099;41.564;23.296;2023-06-19T06:22:06;9.07;;;6.95;;
21868;SDS011;11099;41.564;23.296;2023-06-19T06:24:32;10.27;;;6.25;;
21868;SDS011;11099;41.564;23.296;2023-06-19T06:26:57;8.05;;;6.43;;
21868;SDS011;11099;41.564;23.296;2023-06-19T06:29:24;7.70;;;6.82;;
21868;SDS011;11099;41.564;23.296;2023-06-19T06:31:49;10.70;;;6.20;;
21868;SDS011;11099;41.564;23.296;2023-06-19T06:34:17;10.65;;;6.38;;
21868;SDS011;11099;41.564;23.296;2023-06-19T06:36:44;9.65;;;6.72;;
21868;SDS011;11099;41.564;23.296;2023-06-19T06:39:10;9.40;;;6.97;;
21868;SDS011;11099;41.564;23.296;2023-06-19T06:41:36;7.10;;;6.50;;
21868;SDS011;11099;41.564;23.296;2023-06-19T06:44:02;7.10;;;6.47;;
21868;SDS011;11099;41.564;23.296;2023-06-19T06:46:29;7.65;;;6.07;;
21868;SDS011;11099;41.564;23.296;2023-06-19T06:48:55;6.57;;;6.00;;
21868;SDS011;11099;41.564;23.296;2023-06-19T06:51:21;10.77;;;6.25;;
21868;SDS011;11099;41.564;23.296;2023-06-19T06:53:47;8.02;;;6.25;;
21868;SDS011;11099;41.564;23.296;2023-06-19T06:56:13;7.75;;;6.13;;
21868;SDS011;11099;41.564;23.296;2023-06-19T06:58:38;9.57;;;6.55;;
21868;SDS011;11099;41.564;23.296;2023-06-19T07:01:04;8.90;;;6.10;;
21868;SDS011;11099;41.564;23.296;2023-06-19T07:03:29;9.70;;;6.10;;
21868;SDS011;11099;41.564;23.296;2023-06-19T07:05:56;6.95;;;5.22;;
21868;SDS011;11099;41.564;23.296;2023-06-19T07:08:22;13.93;;;6.38;;
21868;SDS011;11099;41.564;23.296;2023-06-19T07:10:48;6.57;;;5.90;;
21868;SDS011;11099;41.564;23.296;2023-06-19T07:13:14;10.18;;;6.25;;
21868;SDS011;11099;41.564;23.296;2023-06-19T07:15:39;7.10;;;6.40;;
21868;SDS011;11099;41.564;23.296;2023-06-19T07:18:05;7.10;;;5.57;;
21868;SDS011;11099;41.564;23.296;2023-06-19T07:20:31;9.27;;;6.05;;
21868;SDS011;11099;41.564;23.296;2023-06-19T07:22:56;8.45;;;5.78;;
21868;SDS011;11099;41.564;23.296;2023-06-19T07:25:22;7.75;;;6.20;;
21868;SDS011;11099;41.564;23.296;2023-06-19T07:27:50;6.55;;;5.90;;
21868;SDS011;11099;41.564;23.296;2023-06-19T07:30:16;6.35;;;5.55;;
21868;SDS011;11099;41.564;23.296;2023-06-19T07:32:41;7.25;;;4.72;;
21868;SDS011;11099;41.564;23.296;2023-06-19T07:35:07;5.30;;;4.80;;
21868;SDS011;11099;41.564;23.296;2023-06-19T07:37:33;7.57;;;4.88;;
21868;SDS011;11099;41.564;23.296;2023-06-19T07:39:58;7.10;;;4.82;;
21868;SDS011;11099;41.564;23.296;2023-06-19T07:42:25;5.53;;;5.13;;
21868;SDS011;11099;41.564;23.296;2023-06-19T07:44:51;6.70;;;4.95;;
21868;SDS011;11099;41.564;23.296;2023-06-19T07:47:17;6.03;;;4.57;;
21868;SDS011;11099;41.564;23.296;2023-06-19T07:49:44;6.43;;;4.78;;
21868;SDS011;11099;41.564;23.296;2023-06-19T07:52:10;6.20;;;5.00;;
21868;SDS011;11099;41.564;23.296;2023-06-19T07:54:36;8.57;;;4.85;;
21868;SDS011;11099;41.564;23.296;2023-06-19T07:57:12;5.93;;;4.85;;
21868;SDS011;11099;41.564;23.296;2023-06-19T07:59:37;6.28;;;5.35;;
21868;SDS011;11099;41.564;23.296;2023-06-19T08:02:03;9.32;;;5.03;;
21868;SDS011;11099;41.564;23.296;2023-06-19T08:04:29;8.10;;;4.50;;
21868;SDS011;11099;41.564;23.296;2023-06-19T08:06:54;4.10;;;3.80;;
21868;SDS011;11099;41.564;23.296;2023-06-19T08:09:20;4.25;;;3.95;;
21868;SDS011;11099;41.564;23.296;2023-06-19T08:11:46;4.20;;;3.60;;
21868;SDS011;11099;41.564;23.296;2023-06-19T08:14:11;4.00;;;3.60;;
21868;SDS011;11099;41.564;23.296;2023-06-19T08:16:37;6.30;;;3.60;;
21868;SDS011;11099;41.564;23.296;2023-06-19T08:19:02;4.15;;;3.85;;
21868;SDS011;11099;41.564;23.296;2023-06-19T08:21:28;3.50;;;3.30;;
21868;SDS011;11099;41.564;23.296;2023-06-19T08:23:53;4.22;;;3.92;;
21868;SDS011;11099;41.564;23.296;2023-06-19T08:26:19;3.63;;;3.42;;
21868;SDS011;11099;41.564;23.296;2023-06-19T08:28:45;4.07;;;3.67;;
21868;SDS011;11099;41.564;23.296;2023-06-19T08:31:10;3.67;;;3.47;;
21868;SDS011;11099;41.564;23.296;2023-06-19T08:33:36;4.60;;;3.58;;
21868;SDS011;11099;41.564;23.296;2023-06-19T08:36:01;3.85;;;3.55;;
21868;SDS011;11099;41.564;23.296;2023-06-19T08:38:27;4.38;;;4.07;;
21868;SDS011;11099;41.564;23.296;2023-06-19T08:40:53;4.43;;;4.00;;
21868;SDS011;11099;41.564;23.296;2023-06-19T08:43:20;4.50;;;3.70;;
21868;SDS011;11099;41.564;23.296;2023-06-19T08:45:54;4.20;;;3.90;;
21868;SDS011;11099;41.564;23.296;2023-06-19T08:48:36;3.92;;;3.35;;
21868;SDS011;11099;41.564;23.296;2023-06-19T08:51:03;4.47;;;3.60;;
21868;SDS011;11099;41.564;23.296;2023-06-19T08:53:36;4.25;;;3.85;;
21868;SDS011;11099;41.564;23.296;2023-06-19T08:56:09;3.53;;;3.33;;
21868;SDS011;11099;41.564;23.296;2023-06-19T08:58:35;4.10;;;3.47;;
21868;SDS011;11099;41.564;23.296;2023-06-19T09:01:01;4.75;;;3.50;;
21868;SDS011;11099;41.564;23.296;2023-06-19T09:03:27;3.95;;;3.60;;
21868;SDS011;11099;41.564;23.296;2023-06-19T09:05:52;3.85;;;3.45;;
21868;SDS011;11099;41.564;23.296;2023-06-19T09:08:18;3.80;;;3.50;;
21868;SDS011;11099;41.564;23.296;2023-06-19T09:13:27;4.80;;;4.15;;
21868;SDS011;11099;41.564;23.296;2023-06-19T09:18:42;7.15;;;4.32;;
21868;SDS011;11099;41.564;23.296;2023-06-19T09:21:19;3.83;;;3.60;;
21868;SDS011;11099;41.564;23.296;2023-06-19T09:23:47;4.03;;;3.70;;
21868;SDS011;11099;41.564;23.296;2023-06-19T09:26:16;4.55;;;4.15;;
21868;SDS011;11099;41.564;23.296;2023-06-19T09:28:43;3.80;;;3.50;;
21868;SDS011;11099;41.564;23.296;2023-06-19T09:31:09;4.68;;;4.13;;
21868;SDS011;11099;41.564;23.296;2023-06-19T09:33:35;4.07;;;3.70;;
21868;SDS011;11099;41.564;23.296;2023-06-19T09:36:03;7.22;;;4.50;;
21868;SDS011;11099;41.564;23.296;2023-06-19T09:38:31;4.55;;;3.63;;
21868;SDS011;11099;41.564;23.296;2023-06-19T09:41:00;4.03;;;3.63;;
21868;SDS011;11099;41.564;23.296;2023-06-19T09:46:03;3.80;;;3.50;;
21868;SDS011;11099;41.564;23.296;2023-06-19T09:48:30;4.97;;;3.63;;
21868;SDS011;11099;41.564;23.296;2023-06-19T09:51:01;4.10;;;3.67;;
21868;SDS011;11099;41.564;23.296;2023-06-19T09:53:32;4.60;;;4.20;;
21868;SDS011;11099;41.564;23.296;2023-06-19T09:56:00;3.78;;;3.47;;
21868;SDS011;11099;41.564;23.296;2023-06-19T09:58:25;4.43;;;4.10;;
21868;SDS011;11099;41.564;23.296;2023-06-19T10:00:53;3.63;;;3.40;;
21868;SDS011;11099;41.564;23.296;2023-06-19T10:03:20;7.57;;;3.67;;
21868;SDS011;11099;41.564;23.296;2023-06-19T10:05:58;4.05;;;3.30;;
21868;SDS011;11099;41.564;23.296;2023-06-19T10:08:29;4.90;;;4.50;;
21868;SDS011;11099;41.564;23.296;2023-06-19T10:11:05;6.43;;;4.10;;
21868;SDS011;11099;41.564;23.296;2023-06-19T10:13:34;6.10;;;4.07;;
21868;SDS011;11099;41.564;23.296;2023-06-19T10:16:03;4.07;;;3.45;;
21868;SDS011;11099;41.564;23.296;2023-06-19T10:18:31;3.80;;;3.50;;
21868;SDS011;11099;41.564;23.296;2023-06-19T10:20:58;3.70;;;3.38;;
21868;SDS011;11099;41.564;23.296;2023-06-19T10:23:24;6.13;;;3.60;;
21868;SDS011;11099;41.564;23.296;2023-06-19T10:28:31;3.83;;;3.47;;
21868;SDS011;11099;41.564;23.296;2023-06-19T10:31:02;3.75;;;3.50;;
21868;SDS011;11099;41.564;23.296;2023-06-19T10:33:29;3.45;;;3.15;;
21868;SDS011;11099;41.564;23.296;2023-06-19T10:35:58;3.78;;;3.47;;
21868;SDS011;11099;41.564;23.296;2023-06-19T10:38:27;4.22;;;3.58;;
21868;SDS011;11099;41.564;23.296;2023-06-19T10:40:53;4.20;;;3.90;;
21868;SDS011;11099;41.564;23.296;2023-06-19T10:43:22;3.42;;;3.20;;
21868;SDS011;11099;41.564;23.296;2023-06-19T10:45:53;4.63;;;3.35;;
21868;SDS011;11099;41.564;23.296;2023-06-19T10:48:23;3.58;;;3.13;;
21868;SDS011;11099;41.564;23.296;2023-06-19T10:50:49;3.45;;;3.10;;
21868;SDS011;11099;41.564;23.296;2023-06-19T10:53:25;3.05;;;2.85;;
21868;SDS011;11099;41.564;23.296;2023-06-19T10:55:56;3.92;;;3.40;;
21868;SDS011;11099;41.564;23.296;2023-06-19T10:58:23;3.50;;;3.30;;
21868;SDS011;11099;41.564;23.296;2023-06-19T11:00:49;14.88;;;13.18;;
21868;SDS011;11099;41.564;23.296;2023-06-19T11:03:15;3.78;;;3.47;;
21868;SDS011;11099;41.564;23.296;2023-06-19T11:05:43;3.20;;;3.00;;
21868;SDS011;11099;41.564;23.296;2023-06-19T11:08:09;4.43;;;3.28;;
21868;SDS011;11099;41.564;23.296;2023-06-19T11:10:35;4.35;;;3.75;;
21868;SDS011;11099;41.564;23.296;2023-06-19T11:13:01;3.67;;;3.47;;
21868;SDS011;11099;41.564;23.296;2023-06-19T11:15:33;3.90;;;3.60;;
21868;SDS011;11099;41.564;23.296;2023-06-19T11:17:59;5.10;;;2.80;;
21868;SDS011;11099;41.564;23.296;2023-06-19T11:20:26;8.68;;;3.28;;
21868;SDS011;11099;41.564;23.296;2023-06-19T11:22:55;3.42;;;2.92;;
21868;SDS011;11099;41.564;23.296;2023-06-19T11:25:22;4.07;;;3.40;;
21868;SDS011;11099;41.564;23.296;2023-06-19T11:27:47;3.50;;;3.20;;
21868;SDS011;11099;41.564;23.296;2023-06-19T11:30:17;4.22;;;2.95;;
21868;SDS011;11099;41.564;23.296;2023-06-19T11:32:43;3.20;;;2.90;;
21868;SDS011;11099;41.564;23.296;2023-06-19T11:35:11;3.17;;;2.97;;
21868;SDS011;11099;41.564;23.296;2023-06-19T11:37:40;2.67;;;2.47;;
21868;SDS011;11099;41.564;23.296;2023-06-19T11:40:07;3.85;;;3.38;;
21868;SDS011;11099;41.564;23.296;2023-06-19T11:42:47;3.58;;;3.28;;
21868;SDS011;11099;41.564;23.296;2023-06-19T11:45:14;4.13;;;3.08;;
21868;SDS011;11099;41.564;23.296;2023-06-19T11:47:40;3.72;;;3.42;;
21868;SDS011;11099;41.564;23.296;2023-06-19T11:50:06;3.40;;;3.10;;
21868;SDS011;11099;41.564;23.296;2023-06-19T11:52:32;5.28;;;3.22;;
21868;SDS011;11099;41.564;23.296;2023-06-19T11:54:58;3.67;;;3.30;;
21868;SDS011;11099;41.564;23.296;2023-06-19T11:57:24;4.32;;;3.10;;
21868;SDS011;11099;41.564;23.296;2023-06-19T11:59:51;3.10;;;2.90;;
21868;SDS011;11099;41.564;23.296;2023-06-19T12:02:16;3.55;;;3.00;;
21868;SDS011;11099;41.564;23.296;2023-06-19T12:04:42;2.92;;;2.72;;
21868;SDS011;11099;41.564;23.296;2023-06-19T12:07:08;3.70;;;2.95;;
21868;SDS011;11099;41.564;23.296;2023-06-19T12:09:34;2.90;;;2.70;;
21868;SDS011;11099;41.564;23.296;2023-06-19T12:11:59;3.58;;;3.20;;
21868;SDS011;11099;41.564;23.296;2023-06-19T12:14:25;4.25;;;2.80;;
21868;SDS011;11099;41.564;23.296;2023-06-19T12:16:51;4.72;;;3.47;;
21868;SDS011;11099;41.564;23.296;2023-06-19T12:19:17;4.35;;;2.53;;
21868;SDS011;11099;41.564;23.296;2023-06-19T12:21:43;2.60;;;2.40;;
21868;SDS011;11099;41.564;23.296;2023-06-19T12:24:09;3.00;;;2.70;;
21868;SDS011;11099;41.564;23.296;2023-06-19T12:26:34;3.08;;;2.75;;
21868;SDS011;11099;41.564;23.296;2023-06-19T12:29:04;3.95;;;2.40;;
21868;SDS011;11099;41.564;23.296;2023-06-19T12:31:31;3.80;;;2.40;;
21868;SDS011;11099;41.564;23.296;2023-06-19T12:33:57;2.70;;;2.50;;
21868;SDS011;11099;41.564;23.296;2023-06-19T12:36:22;2.67;;;2.47;;
21868;SDS011;11099;41.564;23.296;2023-06-19T12:38:49;2.42;;;2.08;;
21868;SDS011;11099;41.564;23.296;2023-06-19T12:41:15;2.88;;;2.25;;
21868;SDS011;11099;41.564;23.296;2023-06-19T12:43:40;4.85;;;2.47;;
21868;SDS011;11099;41.564;23.296;2023-06-19T12:46:06;2.60;;;2.40;;
21868;SDS011;11099;41.564;23.296;2023-06-19T12:48:32;2.30;;;2.20;;
21868;SDS011;11099;41.564;23.296;2023-06-19T12:50:58;3.75;;;1.90;;
21868;SDS011;11099;41.564;23.296;2023-06-19T12:53:23;3.00;;;2.30;;
21868;SDS011;11099;41.564;23.296;2023-06-19T12:55:58;2.97;;;2.28;;
21868;SDS011;11099;41.564;23.296;2023-06-19T12:58:24;2.53;;;2.20;;
21868;SDS011;11099;41.564;23.296;2023-06-19T13:00:50;2.10;;;1.92;;
21868;SDS011;11099;41.564;23.296;2023-06-19T13:03:16;2.58;;;2.45;;
21868;SDS011;11099;41.564;23.296;2023-06-19T13:05:41;2.53;;;2.33;;
21868;SDS011;11099;41.564;23.296;2023-06-19T13:08:07;4.95;;;2.67;;
21868;SDS011;11099;41.564;23.296;2023-06-19T13:10:33;2.20;;;2.10;;
21868;SDS011;11099;41.564;23.296;2023-06-19T13:12:58;3.08;;;1.95;;
21868;SDS011;11099;41.564;23.296;2023-06-19T13:15:24;2.85;;;1.95;;
21868;SDS011;11099;41.564;23.296;2023-06-19T13:17:50;4.03;;;2.42;;
21868;SDS011;11099;41.564;23.296;2023-06-19T13:20:15;2.28;;;2.10;;
21868;SDS011;11099;41.564;23.296;2023-06-19T13:22:41;2.65;;;2.45;;
21868;SDS011;11099;41.564;23.296;2023-06-19T13:25:07;3.58;;;2.58;;
21868;SDS011;11099;41.564;23.296;2023-06-19T13:27:33;4.78;;;2.38;;
21868;SDS011;11099;41.564;23.296;2023-06-19T13:29:59;2.38;;;2.15;;
21868;SDS011;11099;41.564;23.296;2023-06-19T13:32:26;2.77;;;2.57;;
21868;SDS011;11099;41.564;23.296;2023-06-19T13:34:52;3.78;;;2.50;;
21868;SDS011;11099;41.564;23.296;2023-06-19T13:37:21;2.38;;;2.17;;
21868;SDS011;11099;41.564;23.296;2023-06-19T13:39:46;3.88;;;2.33;;
21868;SDS011;11099;41.564;23.296;2023-06-19T13:42:12;2.83;;;2.17;;
21868;SDS011;11099;41.564;23.296;2023-06-19T13:44:37;2.95;;;2.17;;
21868;SDS011;11099;41.564;23.296;2023-06-19T13:47:04;2.63;;;2.05;;
21868;SDS011;11099;41.564;23.296;2023-06-19T13:49:29;2.97;;;2.35;;
21868;SDS011;11099;41.564;23.296;2023-06-19T13:51:55;2.40;;;2.13;;
21868;SDS011;11099;41.564;23.296;2023-06-19T13:54:21;2.10;;;2.00;;
21868;SDS011;11099;41.564;23.296;2023-06-19T13:56:47;2.40;;;2.20;;
21868;SDS011;11099;41.564;23.296;2023-06-19T13:59:14;2.35;;;2.15;;
21868;SDS011;11099;41.564;23.296;2023-06-19T14:01:40;3.25;;;2.53;;
21868;SDS011;11099;41.564;23.296;2023-06-19T14:04:06;2.42;;;2.10;;
21868;SDS011;11099;41.564;23.296;2023-06-19T14:06:33;2.25;;;2.15;;
21868;SDS011;11099;41.564;23.296;2023-06-19T14:08:59;2.50;;;2.30;;
21868;SDS011;11099;41.564;23.296;2023-06-19T14:11:25;4.72;;;2.65;;
21868;SDS011;11099;41.564;23.296;2023-06-19T14:13:50;2.80;;;2.50;;
21868;SDS011;11099;41.564;23.296;2023-06-19T14:16:15;2.50;;;2.30;;
21868;SDS011;11099;41.564;23.296;2023-06-19T14:18:41;2.60;;;2.40;;
21868;SDS011;11099;41.564;23.296;2023-06-19T14:21:07;2.88;;;2.63;;
21868;SDS011;11099;41.564;23.296;2023-06-19T14:23:32;3.47;;;2.70;;
21868;SDS011;11099;41.564;23.296;2023-06-19T14:25:59;5.95;;;2.63;;
21868;SDS011;11099;41.564;23.296;2023-06-19T14:28:24;2.55;;;2.30;;
21868;SDS011;11099;41.564;23.296;2023-06-19T14:30:50;3.00;;;2.70;;
21868;SDS011;11099;41.564;23.296;2023-06-19T14:33:15;3.85;;;2.53;;
21868;SDS011;11099;41.564;23.296;2023-06-19T14:35:41;8.88;;;2.45;;
21868;SDS011;11099;41.564;23.296;2023-06-19T14:38:09;5.03;;;2.47;;
21868;SDS011;11099;41.564;23.296;2023-06-19T14:40:35;2.40;;;2.25;;
21868;SDS011;11099;41.564;23.296;2023-06-19T14:43:00;3.20;;;2.90;;
21868;SDS011;11099;41.564;23.296;2023-06-19T14:45:26;4.55;;;2.55;;
21868;SDS011;11099;41.564;23.296;2023-06-19T14:47:51;2.70;;;2.55;;